createdAt,value
2022-11-29T00:00:32.840Z,6.58
2022-11-29T00:01:32.841Z,6.53
2022-11-29T00:02:32.987Z,6.50
2022-11-29T00:03:32.829Z,6.55
2022-11-29T00:04:32.786Z,6.53
2022-11-29T00:05:32.776Z,6.60
2022-11-29T00:06:32.761Z,6.61
2022-11-29T00:07:32.771Z,6.63
2022-11-29T00:08:32.728Z,6.54
2022-11-29T00:09:32.719Z,6.60
2022-11-29T00:10:32.704Z,6.61
2022-11-29T00:11:32.687Z,6.46
2022-11-29T00:12:32.675Z,6.57
2022-11-29T00:13:32.661Z,6.55
2022-11-29T00:14:32.652Z,6.51
2022-11-29T00:15:32.633Z,6.48
2022-11-29T00:16:32.675Z,6.60
2022-11-29T00:17:32.612Z,6.55
2022-11-29T00:18:32.594Z,6.53
2022-11-29T00:19:32.612Z,6.60
2022-11-29T00:20:32.573Z,6.51
2022-11-29T00:21:32.555Z,6.50
2022-11-29T00:22:32.549Z,6.51
2022-11-29T00:23:32.527Z,6.48
2022-11-29T00:24:32.618Z,6.48
2022-11-29T00:25:32.503Z,6.39
2022-11-29T00:26:32.491Z,6.57
2022-11-29T00:27:32.470Z,6.46
2022-11-29T00:28:32.457Z,6.38
2022-11-29T00:29:32.444Z,6.51
2022-11-29T00:30:32.705Z,6.45
2022-11-29T00:31:32.416Z,6.51
2022-11-29T00:32:32.416Z,6.50
2022-11-29T00:33:32.397Z,6.45
2022-11-29T00:34:32.383Z,6.53
2022-11-29T00:35:32.393Z,6.45
2022-11-29T00:36:32.353Z,6.54
2022-11-29T00:37:32.334Z,6.42
2022-11-29T00:38:32.326Z,6.48
2022-11-29T00:39:32.312Z,6.48
2022-11-29T00:40:32.297Z,6.42
2022-11-29T00:41:32.284Z,6.43
2022-11-29T00:42:32.272Z,6.40
2022-11-29T00:43:32.258Z,6.48
2022-11-29T00:44:32.247Z,6.51
2022-11-29T00:45:32.228Z,6.51
2022-11-29T00:46:32.217Z,6.50
2022-11-29T00:47:32.204Z,6.46
2022-11-29T00:48:32.193Z,6.51
2022-11-29T00:49:32.173Z,6.38
2022-11-29T00:50:32.166Z,6.43
2022-11-29T00:51:32.171Z,6.48
2022-11-29T00:52:32.138Z,6.50
2022-11-29T00:53:32.120Z,6.45
2022-11-29T00:54:32.109Z,6.57
2022-11-29T00:55:32.197Z,6.54
2022-11-29T00:56:32.082Z,6.51
2022-11-29T00:57:32.064Z,6.42
2022-11-29T00:58:32.058Z,6.53
2022-11-29T00:59:32.037Z,6.51
2022-11-29T01:00:32.022Z,6.48
2022-11-29T01:01:32.069Z,6.43
2022-11-29T01:02:32.015Z,6.51
2022-11-29T01:03:31.988Z,6.51
2022-11-29T01:04:32.022Z,6.51
2022-11-29T01:05:31.959Z,6.51
2022-11-29T01:06:31.942Z,6.46
2022-11-29T01:07:32.035Z,6.53
2022-11-29T01:08:31.924Z,6.51
2022-11-29T01:09:31.905Z,6.51
2022-11-29T01:10:31.890Z,6.43
2022-11-29T01:11:31.878Z,6.43
2022-11-29T01:12:31.872Z,6.50
2022-11-29T01:13:31.853Z,6.50
2022-11-29T01:14:31.843Z,6.46
2022-11-29T01:15:31.821Z,6.46
2022-11-29T01:16:31.936Z,6.45
2022-11-29T01:17:31.796Z,6.45
2022-11-29T01:18:31.789Z,6.54
2022-11-29T01:19:31.771Z,6.55
2022-11-29T01:20:31.761Z,6.48
2022-11-29T01:21:31.744Z,6.43
2022-11-29T01:22:31.727Z,6.53
2022-11-29T01:23:31.734Z,6.51
2022-11-29T01:24:31.697Z,6.45
2022-11-29T01:25:31.682Z,6.39
2022-11-29T01:26:31.674Z,6.48
2022-11-29T01:27:31.661Z,6.33
2022-11-29T01:28:31.644Z,6.42
2022-11-29T01:29:31.627Z,6.40
2022-11-29T01:30:31.648Z,6.40
2022-11-29T01:31:31.611Z,6.40
2022-11-29T01:32:31.591Z,6.38
2022-11-29T01:33:31.575Z,6.46
2022-11-29T01:34:31.570Z,6.33
2022-11-29T01:35:31.906Z,6.36
2022-11-29T01:36:31.543Z,6.45
2022-11-29T01:37:31.529Z,6.33
2022-11-29T01:38:31.517Z,6.35
2022-11-29T01:39:31.568Z,6.35
2022-11-29T01:40:31.482Z,6.33
2022-11-29T01:41:31.467Z,6.38
2022-11-29T01:42:31.452Z,6.43
2022-11-29T01:43:31.439Z,6.28
2022-11-29T01:44:31.428Z,6.36
2022-11-29T01:45:31.414Z,6.30
2022-11-29T01:46:31.451Z,6.30
2022-11-29T01:47:31.392Z,6.21
2022-11-29T01:48:31.376Z,6.19
2022-11-29T01:49:31.367Z,6.13
2022-11-29T01:50:31.349Z,6.28
2022-11-29T01:51:31.330Z,6.25
2022-11-29T01:52:31.317Z,6.24
2022-11-29T01:53:31.302Z,6.25
2022-11-29T01:54:31.294Z,6.24
2022-11-29T01:55:31.378Z,6.14
2022-11-29T01:56:31.266Z,6.14
2022-11-29T01:57:31.256Z,6.20
2022-11-29T01:58:31.238Z,6.24
2022-11-29T01:59:31.229Z,6.14
2022-11-29T02:00:31.214Z,6.17
2022-11-29T02:01:31.297Z,6.21
2022-11-29T02:02:31.266Z,6.28
2022-11-29T02:03:31.168Z,6.19
2022-11-29T02:04:31.158Z,6.13
2022-11-29T02:05:31.141Z,6.17
2022-11-29T02:06:31.126Z,6.20
2022-11-29T02:07:31.173Z,6.30
2022-11-29T02:08:31.104Z,6.25
2022-11-29T02:09:31.090Z,6.21
2022-11-29T02:10:31.072Z,6.25
2022-11-29T02:11:31.099Z,6.16
2022-11-29T02:12:31.048Z,6.19
2022-11-29T02:13:31.034Z,6.11
2022-11-29T02:14:31.022Z,6.14
2022-11-29T02:15:31.100Z,6.16
2022-11-29T02:16:31.000Z,6.16
2022-11-29T02:17:30.983Z,6.25
2022-11-29T02:18:30.965Z,6.19
2022-11-29T02:19:30.957Z,6.27
2022-11-29T02:20:30.938Z,6.17
2022-11-29T02:21:30.927Z,6.24
2022-11-29T02:22:30.908Z,6.13
2022-11-29T02:23:30.903Z,6.13
2022-11-29T02:24:30.884Z,6.03
2022-11-29T02:25:30.875Z,6.17
2022-11-29T02:26:30.864Z,6.10
2022-11-29T02:27:30.870Z,6.14
2022-11-29T02:28:30.829Z,6.05
2022-11-29T02:29:30.815Z,6.19
2022-11-29T02:30:30.816Z,6.17
2022-11-29T02:31:30.792Z,6.13
2022-11-29T02:32:30.777Z,6.11
2022-11-29T02:33:30.763Z,6.02
2022-11-29T02:34:30.744Z,6.06
2022-11-29T02:35:30.739Z,6.05
2022-11-29T02:36:30.726Z,6.11
2022-11-29T02:37:30.709Z,6.06
2022-11-29T02:38:30.699Z,6.01
2022-11-29T02:39:30.683Z,6.19
2022-11-29T02:40:30.664Z,6.21
2022-11-29T02:41:30.654Z,6.10
2022-11-29T02:42:30.643Z,6.19
2022-11-29T02:43:30.646Z,6.16
2022-11-29T02:44:30.609Z,6.17
2022-11-29T02:45:30.598Z,6.10
2022-11-29T02:46:30.618Z,6.19
2022-11-29T02:47:30.573Z,6.16
2022-11-29T02:48:30.555Z,6.25
2022-11-29T02:49:30.542Z,6.21
2022-11-29T02:50:30.526Z,6.21
2022-11-29T02:51:30.516Z,6.14
2022-11-29T02:52:30.505Z,6.10
2022-11-29T02:53:30.489Z,6.14
2022-11-29T02:54:30.477Z,6.19
2022-11-29T02:55:30.459Z,6.16
2022-11-29T02:56:30.452Z,6.21
2022-11-29T02:57:30.435Z,6.17
2022-11-29T02:58:30.422Z,6.21
2022-11-29T02:59:30.435Z,6.21
2022-11-29T03:00:30.395Z,6.17
2022-11-29T03:01:30.412Z,6.21
2022-11-29T03:02:30.412Z,6.21
2022-11-29T03:03:30.361Z,6.21
2022-11-29T03:04:30.348Z,6.20
2022-11-29T03:05:30.332Z,6.24
2022-11-29T03:06:30.316Z,6.32
2022-11-29T03:07:30.344Z,6.24
2022-11-29T03:08:30.281Z,6.21
2022-11-29T03:09:30.268Z,6.35
2022-11-29T03:10:30.256Z,6.28
2022-11-29T03:11:30.251Z,6.30
2022-11-29T03:12:30.228Z,6.27
2022-11-29T03:13:30.216Z,6.19
2022-11-29T03:14:30.207Z,6.20
2022-11-29T03:15:30.267Z,6.28
2022-11-29T03:16:30.175Z,6.27
2022-11-29T03:17:30.169Z,6.19
2022-11-29T03:18:30.150Z,6.28
2022-11-29T03:19:30.139Z,6.16
2022-11-29T03:20:30.120Z,6.33
2022-11-29T03:21:30.113Z,6.25
2022-11-29T03:22:30.093Z,6.25
2022-11-29T03:23:30.078Z,6.27
2022-11-29T03:24:30.067Z,6.28
2022-11-29T03:25:30.055Z,6.28
2022-11-29T03:26:30.037Z,6.38
2022-11-29T03:27:30.032Z,6.21
2022-11-29T03:28:30.022Z,6.24
2022-11-29T03:29:30.006Z,6.33
2022-11-29T03:30:29.986Z,6.32
2022-11-29T03:31:30.096Z,6.27
2022-11-29T03:32:29.965Z,6.27
2022-11-29T03:33:29.947Z,6.36
2022-11-29T03:34:29.929Z,6.30
2022-11-29T03:35:29.919Z,6.25
2022-11-29T03:36:29.905Z,6.33
2022-11-29T03:37:29.893Z,6.27
2022-11-29T03:38:29.878Z,6.30
2022-11-29T03:39:29.871Z,6.35
2022-11-29T03:40:29.847Z,6.25
2022-11-29T03:41:29.840Z,6.27
2022-11-29T03:42:29.829Z,6.21
2022-11-29T03:43:29.819Z,6.28
2022-11-29T03:44:29.800Z,6.42
2022-11-29T03:45:29.790Z,6.35
2022-11-29T03:46:29.841Z,6.30
2022-11-29T03:47:29.776Z,6.33
2022-11-29T03:48:29.739Z,6.35
2022-11-29T03:49:29.727Z,6.35
2022-11-29T03:50:29.712Z,6.30
2022-11-29T03:51:29.702Z,6.32
2022-11-29T03:52:29.688Z,6.30
2022-11-29T03:53:29.680Z,6.35
2022-11-29T03:54:29.659Z,6.33
2022-11-29T03:55:29.754Z,6.25
2022-11-29T03:56:29.630Z,6.32
2022-11-29T03:57:29.619Z,6.20
2022-11-29T03:58:29.609Z,6.21
2022-11-29T03:59:29.595Z,6.21
2022-11-29T04:00:29.575Z,6.28
2022-11-29T04:01:29.593Z,6.27
2022-11-29T04:02:29.653Z,6.30
2022-11-29T04:03:29.559Z,6.27
2022-11-29T04:04:29.520Z,6.25
2022-11-29T04:05:29.513Z,6.21
2022-11-29T04:06:29.498Z,6.28
2022-11-29T04:07:29.577Z,6.32
2022-11-29T04:08:29.465Z,6.33
2022-11-29T04:09:29.455Z,6.21
2022-11-29T04:10:29.439Z,6.33
2022-11-29T04:11:29.426Z,6.33
2022-11-29T04:12:29.414Z,6.13
2022-11-29T04:13:29.401Z,6.38
2022-11-29T04:14:29.383Z,6.30
2022-11-29T04:15:29.376Z,6.32
2022-11-29T04:16:29.359Z,6.33
2022-11-29T04:17:29.346Z,6.30
2022-11-29T04:18:29.334Z,6.25
2022-11-29T04:19:29.346Z,6.28
2022-11-29T04:20:29.304Z,6.39
2022-11-29T04:21:29.292Z,6.21
2022-11-29T04:22:29.272Z,6.30
2022-11-29T04:23:29.270Z,6.38
2022-11-29T04:24:29.249Z,6.27
2022-11-29T04:25:29.240Z,6.33
2022-11-29T04:26:34.672Z,6.27
2022-11-29T04:27:29.210Z,6.32
2022-11-29T04:28:29.197Z,6.36
2022-11-29T04:29:29.180Z,6.32
2022-11-29T04:30:29.173Z,6.33
2022-11-29T04:31:29.196Z,6.32
2022-11-29T04:32:29.142Z,6.35
2022-11-29T04:33:29.132Z,6.33
2022-11-29T04:34:29.118Z,6.32
2022-11-29T04:35:29.124Z,6.33
2022-11-29T04:36:29.088Z,6.36
2022-11-29T04:37:29.067Z,6.24
2022-11-29T04:38:29.059Z,6.35
2022-11-29T04:39:29.049Z,6.35
2022-11-29T04:40:29.031Z,6.28
2022-11-29T04:41:29.019Z,6.27
2022-11-29T04:42:29.010Z,6.21
2022-11-29T04:43:28.996Z,6.33
2022-11-29T04:44:28.975Z,6.30
2022-11-29T04:45:29.009Z,6.40
2022-11-29T04:46:28.980Z,6.35
2022-11-29T04:47:28.934Z,6.27
2022-11-29T04:48:28.919Z,6.35
2022-11-29T04:49:28.909Z,6.36
2022-11-29T04:50:28.894Z,6.36
2022-11-29T04:51:28.899Z,6.33
2022-11-29T04:52:28.875Z,6.27
2022-11-29T04:53:28.849Z,6.38
2022-11-29T04:54:28.836Z,6.30
2022-11-29T04:55:31.093Z,6.32
2022-11-29T04:56:28.809Z,6.24
2022-11-29T04:57:28.801Z,6.33
2022-11-29T04:58:28.782Z,6.32
2022-11-29T04:59:28.770Z,6.45
2022-11-29T05:00:28.756Z,6.32
2022-11-29T05:01:28.758Z,6.36
2022-11-29T05:02:28.742Z,6.39
2022-11-29T05:03:28.720Z,6.30
2022-11-29T05:04:28.700Z,6.42
2022-11-29T05:05:28.691Z,6.38
2022-11-29T05:06:28.677Z,6.38
2022-11-29T05:07:28.716Z,6.30
2022-11-29T05:08:28.649Z,6.35
2022-11-29T05:09:28.627Z,6.40
2022-11-29T05:10:28.613Z,6.33
2022-11-29T05:11:28.602Z,6.21
2022-11-29T05:12:28.586Z,6.36
2022-11-29T05:13:28.578Z,6.43
2022-11-29T05:14:28.565Z,6.32
2022-11-29T05:15:28.546Z,6.42
2022-11-29T05:16:28.595Z,6.33
2022-11-29T05:17:28.528Z,6.33
2022-11-29T05:18:28.509Z,6.46
2022-11-29T05:19:28.494Z,6.42
2022-11-29T05:20:28.473Z,6.42
2022-11-29T05:21:28.465Z,6.46
2022-11-29T05:22:28.446Z,6.46
2022-11-29T05:23:28.463Z,6.38
2022-11-29T05:24:28.416Z,6.40
2022-11-29T05:25:28.412Z,6.33
2022-11-29T05:26:28.396Z,6.39
2022-11-29T05:27:28.378Z,6.40
2022-11-29T05:28:28.365Z,6.40
2022-11-29T05:29:28.356Z,6.48
2022-11-29T05:30:28.335Z,6.45
2022-11-29T05:31:28.358Z,6.36
2022-11-29T05:32:28.310Z,6.42
2022-11-29T05:33:28.295Z,6.45
2022-11-29T05:34:34.515Z,6.40
2022-11-29T05:35:29.291Z,6.48
2022-11-29T05:36:28.254Z,6.46
2022-11-29T05:37:28.245Z,6.35
2022-11-29T05:38:28.227Z,6.43
2022-11-29T05:39:28.245Z,6.51
2022-11-29T05:40:28.203Z,6.50
2022-11-29T05:41:28.198Z,6.42
2022-11-29T05:42:28.179Z,6.36
2022-11-29T05:43:28.165Z,6.43
2022-11-29T05:44:28.147Z,6.45
2022-11-29T05:45:28.136Z,6.46
2022-11-29T05:46:28.195Z,6.46
2022-11-29T05:47:31.338Z,6.53
2022-11-29T05:48:28.097Z,6.45
2022-11-29T05:49:28.092Z,6.42
2022-11-29T05:50:28.105Z,6.51
2022-11-29T05:51:28.061Z,6.39
2022-11-29T05:52:28.037Z,6.57
2022-11-29T05:53:28.029Z,6.50
2022-11-29T05:54:28.018Z,6.48
2022-11-29T05:55:28.021Z,6.43
2022-11-29T05:56:27.983Z,6.53
2022-11-29T05:57:27.975Z,6.58
2022-11-29T05:58:30.468Z,6.46
2022-11-29T05:59:27.942Z,6.55
2022-11-29T06:00:27.936Z,6.48
2022-11-29T06:01:27.930Z,6.53
2022-11-29T06:02:28.071Z,6.46
2022-11-29T06:03:27.895Z,6.50
2022-11-29T06:04:27.880Z,6.57
2022-11-29T06:05:27.871Z,6.40
2022-11-29T06:06:27.855Z,6.39
2022-11-29T06:07:27.904Z,6.48
2022-11-29T06:08:27.832Z,6.51
2022-11-29T06:09:27.815Z,6.40
2022-11-29T06:10:27.800Z,6.46
2022-11-29T06:11:27.832Z,6.43
2022-11-29T06:12:27.778Z,6.48
2022-11-29T06:13:27.754Z,6.42
2022-11-29T06:14:27.744Z,6.45
2022-11-29T06:15:27.728Z,6.48
2022-11-29T06:16:27.789Z,6.32
2022-11-29T06:17:27.707Z,6.32
2022-11-29T06:18:27.692Z,6.39
2022-11-29T06:19:27.678Z,6.46
2022-11-29T06:20:27.665Z,6.39
2022-11-29T06:21:27.652Z,6.42
2022-11-29T06:22:27.637Z,6.39
2022-11-29T06:23:27.620Z,6.54
2022-11-29T06:24:27.607Z,6.46
2022-11-29T06:25:27.589Z,6.42
2022-11-29T06:26:27.579Z,6.35
2022-11-29T06:27:27.589Z,6.45
2022-11-29T06:28:27.576Z,6.40
2022-11-29T06:29:27.544Z,6.45
2022-11-29T06:30:27.545Z,6.39
2022-11-29T06:31:27.683Z,6.48
2022-11-29T06:32:27.497Z,6.43
2022-11-29T06:33:27.489Z,6.42
2022-11-29T06:34:30.722Z,6.48
2022-11-29T06:35:27.456Z,6.42
2022-11-29T06:36:27.439Z,6.46
2022-11-29T06:37:27.426Z,6.57
2022-11-29T06:38:27.414Z,6.50
2022-11-29T06:39:27.398Z,6.46
2022-11-29T06:40:27.390Z,6.48
2022-11-29T06:41:27.375Z,6.51
2022-11-29T06:42:27.359Z,6.51
2022-11-29T06:43:27.371Z,6.43
2022-11-29T06:44:27.335Z,6.36
2022-11-29T06:45:27.325Z,6.45
2022-11-29T06:46:27.437Z,6.51
2022-11-29T06:47:27.295Z,6.46
2022-11-29T06:48:27.286Z,6.54
2022-11-29T06:49:27.269Z,6.58
2022-11-29T06:50:27.250Z,6.50
2022-11-29T06:51:27.240Z,6.55
2022-11-29T06:52:27.228Z,6.48
2022-11-29T06:53:27.215Z,6.51
2022-11-29T06:54:27.204Z,6.43
2022-11-29T06:55:27.194Z,6.48
2022-11-29T06:56:27.175Z,6.42
2022-11-29T06:57:27.157Z,6.48
2022-11-29T06:58:31.449Z,6.53
2022-11-29T06:59:28.176Z,6.51
2022-11-29T07:00:27.199Z,6.36
2022-11-29T07:01:27.149Z,6.45
2022-11-29T07:02:27.129Z,6.61
2022-11-29T07:03:27.074Z,6.42
2022-11-29T07:04:27.065Z,6.40
2022-11-29T07:05:27.050Z,6.46
2022-11-29T07:06:27.037Z,6.51
2022-11-29T07:07:27.076Z,6.51
2022-11-29T07:08:27.014Z,6.50
2022-11-29T07:09:27.000Z,6.54
2022-11-29T07:10:26.982Z,6.46
2022-11-29T07:11:26.970Z,6.51
2022-11-29T07:12:26.953Z,6.51
2022-11-29T07:13:26.941Z,6.48
2022-11-29T07:14:26.930Z,6.46
2022-11-29T07:15:26.938Z,6.40
2022-11-29T07:16:26.961Z,6.54
2022-11-29T07:17:26.888Z,6.55
2022-11-29T07:18:26.877Z,6.50
2022-11-29T07:19:26.855Z,6.45
2022-11-29T07:20:26.846Z,6.50
2022-11-29T07:21:26.834Z,6.50
2022-11-29T07:22:26.822Z,6.43
2022-11-29T07:23:26.808Z,6.50
2022-11-29T07:24:26.790Z,6.42
2022-11-29T07:25:26.773Z,6.51
2022-11-29T07:26:26.766Z,6.48
2022-11-29T07:27:26.754Z,6.57
2022-11-29T07:28:26.738Z,6.43
2022-11-29T07:29:26.726Z,6.50
2022-11-29T07:30:26.809Z,6.51
2022-11-29T07:31:26.757Z,6.51
2022-11-29T07:32:26.691Z,6.60
2022-11-29T07:33:26.665Z,6.55
2022-11-29T07:34:26.651Z,6.51
2022-11-29T07:35:26.643Z,6.53
2022-11-29T07:36:26.636Z,6.46
2022-11-29T07:37:26.614Z,6.61
2022-11-29T07:38:26.611Z,6.51
2022-11-29T07:39:26.587Z,6.58
2022-11-29T07:40:26.726Z,6.63
2022-11-29T07:41:26.566Z,6.55
2022-11-29T07:42:26.547Z,6.60
2022-11-29T07:43:26.541Z,6.61
2022-11-29T07:44:26.525Z,6.63
2022-11-29T07:45:26.511Z,6.55
2022-11-29T07:46:26.520Z,6.68
2022-11-29T07:47:29.085Z,6.58
2022-11-29T07:48:27.490Z,6.64
2022-11-29T07:49:26.452Z,6.75
2022-11-29T07:50:26.475Z,6.61
2022-11-29T07:51:26.430Z,6.65
2022-11-29T07:52:26.416Z,6.71
2022-11-29T07:53:26.399Z,6.65
2022-11-29T07:54:26.387Z,6.64
2022-11-29T07:55:26.376Z,6.65
2022-11-29T07:56:26.360Z,6.69
2022-11-29T07:57:26.348Z,6.65
2022-11-29T07:58:26.380Z,6.75
2022-11-29T07:59:26.323Z,6.61
2022-11-29T08:00:26.348Z,6.75
2022-11-29T08:01:26.320Z,6.76
2022-11-29T08:02:26.381Z,6.63
2022-11-29T08:03:26.283Z,6.69
2022-11-29T08:04:26.254Z,6.68
2022-11-29T08:05:26.233Z,6.81
2022-11-29T08:06:26.227Z,6.60
2022-11-29T08:07:26.249Z,6.71
2022-11-29T08:08:26.204Z,6.64
2022-11-29T08:09:26.184Z,6.63
2022-11-29T08:10:26.170Z,6.65
2022-11-29T08:11:26.165Z,6.64
2022-11-29T08:12:26.144Z,6.78
2022-11-29T08:13:26.132Z,6.78
2022-11-29T08:14:26.114Z,6.75
2022-11-29T08:15:26.099Z,6.79
2022-11-29T08:16:26.195Z,6.71
2022-11-29T08:17:26.070Z,6.68
2022-11-29T08:18:26.060Z,6.72
2022-11-29T08:19:26.076Z,6.69
2022-11-29T08:20:26.038Z,6.68
2022-11-29T08:21:26.020Z,6.68
2022-11-29T08:22:26.013Z,6.73
2022-11-29T08:23:25.994Z,6.64
2022-11-29T08:24:25.983Z,6.64
2022-11-29T08:25:25.970Z,6.69
2022-11-29T08:26:31.191Z,6.65
2022-11-29T08:27:25.933Z,6.75
2022-11-29T08:28:25.921Z,6.72
2022-11-29T08:29:25.906Z,6.72
2022-11-29T08:30:25.894Z,6.79
2022-11-29T08:31:25.942Z,6.87
2022-11-29T08:32:25.874Z,6.73
2022-11-29T08:33:25.860Z,6.75
2022-11-29T08:34:25.846Z,6.73
2022-11-29T08:35:25.860Z,6.76
2022-11-29T08:36:25.816Z,6.72
2022-11-29T08:37:25.812Z,6.81
2022-11-29T08:38:25.793Z,6.79
2022-11-29T08:39:25.778Z,6.76
2022-11-29T08:40:25.769Z,6.82
2022-11-29T08:41:25.750Z,6.76
2022-11-29T08:42:25.736Z,6.82
2022-11-29T08:43:25.723Z,6.78
2022-11-29T08:44:25.711Z,6.93
2022-11-29T08:45:25.769Z,6.82
2022-11-29T08:46:25.727Z,6.79
2022-11-29T08:47:25.690Z,6.82
2022-11-29T08:48:25.663Z,6.79
2022-11-29T08:49:25.638Z,6.71
2022-11-29T08:50:25.649Z,6.78
2022-11-29T08:51:25.629Z,6.76
2022-11-29T08:52:25.599Z,6.87
2022-11-29T08:53:25.586Z,6.83
2022-11-29T08:54:25.575Z,6.86
2022-11-29T08:55:25.558Z,6.87
2022-11-29T08:57:16.419Z,6.91
2022-11-29T08:57:41.908Z,6.86
2022-11-29T08:58:26.535Z,7.01
2022-11-29T08:59:25.505Z,6.99
2022-11-29T09:00:25.497Z,6.93
2022-11-29T09:01:25.550Z,6.96
2022-11-29T09:02:25.544Z,6.90
2022-11-29T09:03:25.457Z,6.94
2022-11-29T09:04:25.443Z,7.12
2022-11-29T09:05:25.426Z,7.08
2022-11-29T09:06:25.413Z,7.11
2022-11-29T09:07:25.463Z,7.01
2022-11-29T09:08:25.383Z,7.08
2022-11-29T09:09:25.368Z,7.01
2022-11-29T09:10:25.351Z,7.05
2022-11-29T09:11:25.340Z,7.09
2022-11-29T09:12:25.324Z,7.11
2022-11-29T09:13:25.312Z,7.09
2022-11-29T09:14:25.308Z,7.14
2022-11-29T09:15:25.292Z,7.14
2022-11-29T09:16:25.393Z,7.05
2022-11-29T09:17:25.265Z,7.18
2022-11-29T09:18:25.251Z,7.14
2022-11-29T09:19:25.235Z,7.08
2022-11-29T09:20:25.216Z,7.12
2022-11-29T09:21:25.203Z,7.09
2022-11-29T09:22:25.190Z,7.14
2022-11-29T09:23:25.203Z,7.08
2022-11-29T09:24:25.174Z,7.08
2022-11-29T09:25:25.152Z,7.09
2022-11-29T09:26:25.147Z,7.12
2022-11-29T09:27:25.130Z,7.09
2022-11-29T09:28:25.122Z,7.15
2022-11-29T09:29:25.103Z,7.09
2022-11-29T09:30:25.125Z,7.23
2022-11-29T09:31:25.115Z,7.21
2022-11-29T09:32:25.052Z,7.18
2022-11-29T09:33:25.040Z,7.11
2022-11-29T09:34:25.027Z,7.12
2022-11-29T09:35:25.008Z,7.11
2022-11-29T09:36:28.524Z,7.23
2022-11-29T09:37:24.989Z,7.11
2022-11-29T09:38:24.975Z,7.05
2022-11-29T09:39:24.989Z,7.18
2022-11-29T09:40:24.951Z,7.14
2022-11-29T09:41:24.936Z,7.15
2022-11-29T09:42:24.926Z,7.14
2022-11-29T09:43:24.908Z,7.15
2022-11-29T09:44:24.900Z,7.16
2022-11-29T09:45:24.879Z,7.21
2022-11-29T09:46:24.872Z,7.16
2022-11-29T09:47:24.851Z,7.23
2022-11-29T09:48:24.885Z,7.16
2022-11-29T09:49:24.823Z,7.39
2022-11-29T09:50:24.810Z,7.30
2022-11-29T09:51:24.794Z,7.32
2022-11-29T09:52:24.785Z,7.27
2022-11-29T09:53:24.766Z,7.39
2022-11-29T09:54:24.757Z,7.42
2022-11-29T09:55:24.764Z,7.37
2022-11-29T09:56:24.735Z,7.27
2022-11-29T09:57:24.718Z,7.37
2022-11-29T09:58:24.707Z,7.33
2022-11-29T09:59:24.692Z,7.33
2022-11-29T10:00:24.673Z,7.33
2022-11-29T10:01:24.818Z,7.32
2022-11-29T10:02:24.689Z,7.39
2022-11-29T10:03:24.630Z,7.39
2022-11-29T10:04:24.620Z,7.34
2022-11-29T10:05:24.608Z,7.36
2022-11-29T10:06:24.607Z,7.34
2022-11-29T10:07:24.668Z,7.39
2022-11-29T10:08:24.569Z,7.36
2022-11-29T10:09:24.553Z,7.32
2022-11-29T10:10:24.540Z,7.30
2022-11-29T10:11:24.565Z,7.30
2022-11-29T10:12:24.509Z,7.33
2022-11-29T10:13:24.497Z,7.37
2022-11-29T10:14:24.480Z,7.29
2022-11-29T10:15:24.465Z,7.33
2022-11-29T10:16:24.565Z,7.21
2022-11-29T10:17:24.443Z,7.30
2022-11-29T10:18:24.427Z,7.24
2022-11-29T10:19:24.425Z,7.18
2022-11-29T10:20:24.404Z,7.18
2022-11-29T10:21:24.391Z,7.19
2022-11-29T10:22:24.379Z,7.18
2022-11-29T10:23:24.365Z,7.27
2022-11-29T10:24:24.349Z,7.12
2022-11-29T10:25:24.352Z,7.19
2022-11-29T10:26:24.316Z,7.24
2022-11-29T10:27:24.329Z,7.24
2022-11-29T10:28:24.287Z,7.27
2022-11-29T10:29:24.286Z,7.29
2022-11-29T10:30:24.329Z,7.19
2022-11-29T10:31:24.252Z,7.24
2022-11-29T10:32:24.234Z,7.23
2022-11-29T10:33:24.224Z,7.30
2022-11-29T10:34:24.211Z,7.32
2022-11-29T10:35:24.197Z,7.26
2022-11-29T10:36:24.184Z,7.29
2022-11-29T10:37:24.170Z,7.37
2022-11-29T10:38:32.059Z,7.30
2022-11-29T10:39:25.170Z,7.33
2022-11-29T10:40:24.133Z,7.21
2022-11-29T10:41:24.117Z,7.23
2022-11-29T10:42:24.101Z,7.29
2022-11-29T10:43:24.112Z,7.21
2022-11-29T10:44:24.077Z,7.27
2022-11-29T10:45:24.058Z,7.33
2022-11-29T10:46:24.111Z,7.34
2022-11-29T10:47:24.036Z,7.41
2022-11-29T10:48:24.020Z,7.33
2022-11-29T10:49:24.011Z,7.29
2022-11-29T10:50:23.993Z,7.30
2022-11-29T10:51:23.982Z,7.34
2022-11-29T10:52:23.968Z,7.39
2022-11-29T10:53:23.958Z,7.39
2022-11-29T10:54:23.939Z,7.47
2022-11-29T10:55:23.929Z,7.33
2022-11-29T10:56:23.906Z,7.36
2022-11-29T10:57:23.896Z,7.42
2022-11-29T10:58:28.048Z,7.42
2022-11-29T10:59:23.902Z,7.30
2022-11-29T11:00:23.855Z,7.47
2022-11-29T11:01:24.064Z,7.48
2022-11-29T11:02:23.827Z,7.34
2022-11-29T11:03:23.817Z,7.36
2022-11-29T11:04:23.801Z,7.39
2022-11-29T11:05:23.835Z,7.36
2022-11-29T11:06:23.779Z,7.36
2022-11-29T11:07:23.827Z,7.32
2022-11-29T11:08:23.871Z,7.41
2022-11-29T11:09:23.733Z,7.30
2022-11-29T11:10:23.718Z,7.26
2022-11-29T11:11:23.710Z,7.26
2022-11-29T11:12:23.690Z,7.36
2022-11-29T11:13:23.685Z,7.41
2022-11-29T11:14:23.672Z,7.42
2022-11-29T11:15:23.682Z,7.32
2022-11-29T11:16:23.769Z,7.37
2022-11-29T11:17:23.622Z,7.37
2022-11-29T11:18:23.608Z,7.39
2022-11-29T11:19:23.598Z,7.36
2022-11-29T11:20:23.585Z,7.33
2022-11-29T11:21:23.572Z,7.36
2022-11-29T11:22:23.556Z,7.36
2022-11-29T11:23:23.547Z,7.33
2022-11-29T11:24:23.529Z,7.29
2022-11-29T11:25:23.519Z,7.27
2022-11-29T11:26:23.504Z,7.29
2022-11-29T11:27:23.489Z,7.21
2022-11-29T11:28:23.476Z,7.33
2022-11-29T11:29:23.466Z,7.32
2022-11-29T11:30:23.455Z,7.27
2022-11-29T11:31:23.478Z,7.24
2022-11-29T11:32:23.425Z,7.21
2022-11-29T11:33:23.403Z,7.33
2022-11-29T11:34:23.391Z,7.32
2022-11-29T11:35:23.383Z,7.18
2022-11-29T11:36:23.373Z,7.26
2022-11-29T11:37:23.356Z,7.21
2022-11-29T11:38:23.341Z,7.29
2022-11-29T11:39:23.329Z,7.32
2022-11-29T11:40:23.321Z,7.18
2022-11-29T11:41:23.304Z,7.26
2022-11-29T11:42:23.285Z,7.27
2022-11-29T11:43:23.269Z,7.19
2022-11-29T11:44:50.706Z,7.23
2022-11-29T11:45:24.263Z,7.11
2022-11-29T11:46:23.241Z,7.18
2022-11-29T11:47:23.238Z,7.19
2022-11-29T11:48:23.206Z,7.23
2022-11-29T11:49:23.189Z,7.36
2022-11-29T11:50:23.179Z,7.30
2022-11-29T11:51:23.160Z,7.32
2022-11-29T11:52:23.157Z,7.32
2022-11-29T11:53:23.335Z,7.37
2022-11-29T11:54:23.119Z,7.41
2022-11-29T11:55:23.167Z,7.27
2022-11-29T11:56:23.090Z,7.37
2022-11-29T11:57:23.083Z,7.26
2022-11-29T11:58:23.066Z,7.34
2022-11-29T11:59:23.051Z,7.41
2022-11-29T12:00:47.632Z,7.36
2022-11-29T12:01:24.045Z,7.36
2022-11-29T12:02:23.096Z,7.27
2022-11-29T12:03:23.123Z,7.30
2022-11-29T12:04:23.112Z,7.36
2022-11-29T12:05:22.978Z,7.32
2022-11-29T12:06:22.960Z,7.32
2022-11-29T12:07:33.955Z,7.37
2022-11-29T12:08:23.980Z,7.42
2022-11-29T12:09:22.923Z,7.33
2022-11-29T12:10:22.918Z,7.39
2022-11-29T12:11:22.895Z,7.39
2022-11-29T12:12:22.874Z,7.44
2022-11-29T12:13:22.858Z,7.36
2022-11-29T12:14:22.842Z,7.41
2022-11-29T12:15:22.836Z,7.44
2022-11-29T12:16:22.848Z,7.52
2022-11-29T12:17:22.835Z,7.51
2022-11-29T12:18:22.796Z,7.51
2022-11-29T12:19:22.812Z,7.45
2022-11-29T12:20:22.769Z,7.48
2022-11-29T12:21:22.761Z,7.51
2022-11-29T12:22:22.737Z,7.57
2022-11-29T12:23:22.729Z,7.58
2022-11-29T12:24:22.715Z,7.54
2022-11-29T12:25:22.703Z,7.54
2022-11-29T12:26:55.373Z,7.60
2022-11-29T12:27:23.706Z,7.58
2022-11-29T12:28:22.662Z,7.42
2022-11-29T12:29:22.647Z,7.63
2022-11-29T12:30:22.632Z,7.55
2022-11-29T12:31:22.662Z,7.51
2022-11-29T12:32:22.693Z,7.54
2022-11-29T12:33:22.594Z,7.52
2022-11-29T12:34:22.950Z,7.42
2022-11-29T12:35:22.587Z,7.51
2022-11-29T12:36:22.543Z,7.55
2022-11-29T12:37:22.535Z,7.52
2022-11-29T12:38:22.514Z,7.60
2022-11-29T12:39:22.503Z,7.60
2022-11-29T12:40:22.494Z,7.66
2022-11-29T12:41:22.478Z,7.54
2022-11-29T12:42:22.467Z,7.70
2022-11-29T12:43:22.457Z,7.62
2022-11-29T12:44:22.447Z,7.62
2022-11-29T12:45:22.434Z,7.57
2022-11-29T12:46:22.479Z,7.73
2022-11-29T12:47:37.917Z,7.57
2022-11-29T12:48:23.413Z,7.62
2022-11-29T12:49:22.376Z,7.66
2022-11-29T12:50:22.363Z,7.58
2022-11-29T12:51:22.369Z,7.63
2022-11-29T12:52:22.328Z,7.70
2022-11-29T12:53:27.040Z,7.70
2022-11-29T12:54:22.402Z,7.74
2022-11-29T12:55:22.287Z,7.77
2022-11-29T12:56:22.281Z,7.77
2022-11-29T12:57:22.261Z,7.76
2022-11-29T12:58:22.246Z,7.67
2022-11-29T12:59:22.243Z,7.71
2022-11-29T13:00:22.230Z,7.82
2022-11-29T13:01:22.290Z,7.76
2022-11-29T13:02:22.276Z,7.66
2022-11-29T13:03:22.182Z,7.77
2022-11-29T13:04:22.164Z,7.63
2022-11-29T13:05:22.154Z,7.69
2022-11-29T13:06:22.148Z,7.79
2022-11-29T13:07:22.210Z,7.74
2022-11-29T13:08:22.135Z,7.66
2022-11-29T13:09:22.106Z,7.70
2022-11-29T13:10:22.093Z,7.88
2022-11-29T13:11:22.085Z,7.82
2022-11-29T13:12:22.085Z,7.82
2022-11-29T13:13:22.099Z,7.81
2022-11-29T13:15:22.016Z,7.89
2022-11-29T13:16:26.315Z,7.95
2022-11-29T13:17:23.024Z,7.95
2022-11-29T13:18:21.972Z,7.91
2022-11-29T13:19:21.962Z,8.02